Time;durP1;ratioP1;P1;durP2;ratioP2;P2;SDS_P1;SDS_P2;PMS_P1;PMS_P2;Temp;Humidity;BMP_temperature;BMP_pressure;BME280_temperature;BME280_humidity;BME280_pressure;Samples;Min_cycle;Max_cycle;Signal;HPM_P1;HPM_P2
2021/08/30 00:00:24;;;;;;;;;;;;;;;;;;2090774;27;99925;-20
2021/08/30 00:01:25;;;;;;;6.68;2.63;;;;;;;;;;2090343;27;99917;-22
2021/08/30 00:02:26;;;;;;;6.88;2.35;;;;;;;;;;2090833;27;99898;-21
2021/08/30 00:03:28;;;;;;;3.85;2.03;;;;;;;;;;2090152;27;100096;-21
2021/08/30 00:04:28;;;;;;;6.95;2.15;;;;;;;;;;2090800;27;100163;-24
2021/08/30 00:05:30;;;;;;;4.82;2.10;;;;;;;;;;2090698;27;99985;-22
2021/08/30 00:06:30;;;;;;;8.15;2.38;;;;;;;;;;2090971;27;100011;-21
2021/08/30 00:07:31;;;;;;;;;;;;;;;;;;2091236;27;100078;-21
2021/08/30 00:08:32;;;;;;;9.13;2.67;;;;;;;;;;2090844;27;100006;-21
2021/08/30 00:09:33;;;;;;;5.75;2.28;;;;;;;;;;2081837;28;100038;-22
2021/08/30 00:10:34;;;;;;;8.75;2.30;;;;;;;;;;2081920;27;99952;-23
2021/08/30 00:11:35;;;;;;;6.22;2.38;;;;;;;;;;2089746;27;99956;-24
2021/08/30 00:12:40;;;;;;;7.93;2.22;;;;;;;;;;2089932;27;99878;-20
2021/08/30 00:13:41;;;;;;;7.78;2.33;;;;;;;;;;2081369;28;99961;-23
2021/08/30 00:14:41;;;;;;;;;;;;;;;;;;2074217;28;100116;-21
2021/08/30 00:15:42;;;;;;;5.90;2.22;;;;;;;;;;2081276;27;100226;-21
2021/08/30 00:16:43;;;;;;;4.35;2.33;;;;;;;;;;2090293;27;99967;-22
2021/08/30 00:17:47;;;;;;;7.60;2.47;;;;;;;;;;2090711;27;100202;-23
2021/08/30 00:18:48;;;;;;;5.32;2.35;;;;;;;;;;2081396;28;99944;-23
2021/08/30 00:19:51;;;;;;;5.28;2.08;;;;;;;;;;2081865;27;100015;-22
2021/08/30 00:20:52;;;;;;;;;;;;;;;;;;2090846;27;99954;-22
2021/08/30 00:21:53;;;;;;;7.00;2.40;;;;;;;;;;2090484;27;100020;-24
2021/08/30 00:22:54;;;;;;;5.75;2.50;;;;;;;;;;2090558;27;99927;-21
2021/08/30 00:23:55;;;;;;;4.50;2.10;;;;;;;;;;2089805;27;100046;-20
2021/08/30 00:24:56;;;;;;;4.78;2.65;;;;;;;;;;2089577;27;100015;-19
2021/08/30 00:25:56;;;;;;;;;;;;;;;;;;2081887;28;99924;-24
2021/08/30 00:26:58;;;;;;;8.18;2.60;;;;;;;;;;2081554;27;99964;-21
2021/08/30 00:27:59;;;;;;;6.88;2.40;;;;;;;;;;2090296;27;99886;-24
2021/08/30 00:29:00;;;;;;;6.50;2.50;;;;;;;;;;2090789;27;100256;-19
2021/08/30 00:30:02;;;;;;;5.25;2.30;;;;;;;;;;2090165;27;99923;-22
2021/08/30 00:31:02;;;;;;;7.85;2.22;;;;;;;;;;2090796;27;100021;-22
2021/08/30 00:32:03;;;;;;;;;;;;;;;;;;2090565;27;99945;-22
2021/08/30 00:33:04;;;;;;;3.55;2.28;;;;;;;;;;2090660;27;100172;-20
2021/08/30 00:34:05;;;;;;;6.53;2.25;;;;;;;;;;2073693;27;101612;-22
2021/08/30 00:35:06;;;;;;;;;;;;;;;;;;2084261;27;100144;-20
2021/08/30 09:41:05;;;;;;;13.45;4.85;;;;;;;;;;2090120;27;99900;-14
2021/08/30 09:42:06;;;;;;;12.57;5.38;;;;;;;;;;2096924;27;99921;-13
2021/08/30 09:43:17;;;;;;;;;;;;;;;;;;2097184;27;100040;-14
2021/08/30 09:44:27;;;;;;;12.68;5.18;;;;;;;;;;2088854;27;99962;-13
2021/08/30 09:45:28;;;;;;;13.75;5.10;;;;;;;;;;2089123;27;99916;-17
2021/08/30 09:46:31;;;;;;;13.07;5.45;;;;;;;;;;2089504;27;99962;-15
2021/08/30 09:47:32;;;;;;;12.25;5.40;;;;;;;;;;2089180;27;100072;-16
2021/08/30 09:48:34;;;;;;;10.93;5.57;;;;;;;;;;2089280;27;100007;-17
2021/08/30 09:49:35;;;;;;;8.40;5.03;;;;;;;;;;2088553;27;100003;-16
2021/08/30 09:50:42;;;;;;;12.32;5.28;;;;;;;;;;2088558;27;99931;-17
2021/08/30 09:51:43;;;;;;;12.10;4.93;;;;;;;;;;2089127;27;100061;-14
2021/08/30 09:52:44;;;;;;;12.70;5.40;;;;;;;;;;2089291;27;100029;-16
2021/08/30 09:53:44;;;;;;;;;;;;;;;;;;2089164;27;99842;-14
2021/08/30 09:54:46;;;;;;;12.30;5.57;;;;;;;;;;2088620;27;100012;-14
2021/08/30 09:55:47;;;;;;;14.90;5.28;;;;;;;;;;2089013;27;99877;-13
2021/08/30 09:56:48;;;;;;;11.32;4.78;;;;;;;;;;2089374;27;99859;-17
2021/08/30 09:57:50;;;;;;;9.23;5.20;;;;;;;;;;2088913;27;99955;-14
2021/08/30 09:58:51;;;;;;;12.50;5.10;;;;;;;;;;2089364;27;100089;-17
2021/08/30 09:59:55;;;;;;;10.98;5.20;;;;;;;;;;2089143;27;99992;-16
2021/08/30 10:00:59;;;;;;;12.80;5.30;;;;;;;;;;2089107;27;99831;-18
2021/08/30 10:02:01;;;;;;;12.18;4.82;;;;;;;;;;2088281;27;100083;-17
2021/08/30 10:03:03;;;;;;;15.32;5.38;;;;;;;;;;2088646;27;99966;-14
2021/08/30 10:04:09;;;;;;;9.55;5.03;;;;;;;;;;2088128;27;100047;-17
2021/08/30 10:05:10;;;;;;;8.30;4.63;;;;;;;;;;2088997;27;100018;-18
2021/08/30 10:06:12;;;;;;;8.60;5.10;;;;;;;;;;2088439;27;100452;-14
2021/08/30 10:07:13;;;;;;;9.43;4.53;;;;;;;;;;2087974;27;100166;-15
2021/08/30 10:08:16;;;;;;;9.77;5.25;;;;;;;;;;2089215;27;99838;-16
2021/08/30 10:09:19;;;;;;;10.93;4.78;;;;;;;;;;2088781;27;100120;-18
2021/08/30 10:10:23;;;;;;;10.85;5.00;;;;;;;;;;2088775;27;99942;-15
2021/08/30 10:11:24;;;;;;;11.57;5.28;;;;;;;;;;2089131;27;100033;-17
2021/08/30 10:12:25;;;;;;;9.20;5.15;;;;;;;;;;2088680;27;99998;-15
2021/08/30 10:13:25;;;;;;;;;;;;;;;;;;2085663;27;99923;-15
2021/08/30 10:14:29;;;;;;;11.80;5.10;;;;;;;;;;2087595;27;100029;-17
2021/08/30 10:15:30;;;;;;;12.70;4.97;;;;;;;;;;2088391;27;99999;-18
2021/08/30 10:16:31;;;;;;;;;;;;;;;;;;2089593;27;100163;-15
2021/08/30 10:17:32;;;;;;;11.73;4.85;;;;;;;;;;2089001;27;100397;-17
2021/08/30 10:18:33;;;;;;;11.23;5.03;;;;;;;;;;2088545;27;100169;-17
2021/08/30 10:19:35;;;;;;;;;;;;;;;;;;2088601;27;100012;-17
2021/08/30 10:20:40;;;;;;;9.20;4.60;;;;;;;;;;2088278;27;100277;-17
2021/08/30 10:21:46;;;;;;;13.90;5.00;;;;;;;;;;2088974;27;99952;-16
2021/08/30 10:22:59;;;;;;;7.63;4.90;;;;;;;;;;2089211;27;100345;-17
2021/08/30 10:24:10;;;;;;;10.23;4.63;;;;;;;;;;2089201;27;100014;-17
2021/08/30 10:25:15;;;;;;;11.30;5.05;;;;;;;;;;2088813;27;99922;-18
2021/08/30 10:26:17;;;;;;;8.00;4.90;;;;;;;;;;2089178;27;99862;-17
2021/08/30 10:27:28;;;;;;;11.20;5.28;;;;;;;;;;2089054;27;99926;-17
2021/08/30 10:28:40;;;;;;;11.57;5.10;;;;;;;;;;2086226;27;99934;-14
2021/08/30 10:29:43;;;;;;;9.60;4.88;;;;;;;;;;2072354;27;100094;-14
2021/08/30 10:30:53;;;;;;;11.65;4.90;;;;;;;;;;2088184;27;100267;-14
2021/08/30 10:31:54;;;;;;;14.50;5.60;;;;;;;;;;2088870;27;99920;-14
2021/08/30 10:32:59;;;;;;;;;;;;;;;;;;2089159;27;100340;-16
2021/08/30 10:34:00;;;;;;;9.48;4.72;;;;;;;;;;2088460;27;100093;-12
2021/08/30 10:35:20;;;;;;;10.13;5.35;;;;;;;;;;2088712;27;99974;-18
2021/08/30 10:36:24;;;;;;;13.02;5.47;;;;;;;;;;2088072;27;100137;-17
2021/08/30 10:37:27;;;;;;;9.48;5.35;;;;;;;;;;2087941;27;100021;-14
2021/08/30 10:38:28;;;;;;;12.68;5.57;;;;;;;;;;2088614;27;99904;-16
2021/08/30 10:39:42;;;;;;;;;;;;;;;;;;2089193;27;99958;-14
2021/08/30 10:40:49;;;;;;;9.25;5.07;;;;;;;;;;2088775;27;100458;-15
2021/08/30 10:41:51;;;;;;;12.68;5.32;;;;;;;;;;2082705;27;100106;-16
2021/08/30 10:43:16;;;;;;;10.10;5.32;;;;;;;;;;2082516;28;99995;-15
2021/08/30 10:44:22;;;;;;;12.40;5.18;;;;;;;;;;2073837;28;100033;-17
2021/08/30 10:45:30;;;;;;;13.68;5.55;;;;;;;;;;2075083;28;100064;-15
2021/08/30 10:46:43;;;;;;;11.57;5.25;;;;;;;;;;2082779;28;100460;-15
2021/08/30 10:47:44;;;;;;;11.57;5.32;;;;;;;;;;2082424;28;100121;-15
2021/08/30 10:48:50;;;;;;;;;;;;;;;;;;2083995;27;100330;-16
2021/08/30 10:49:52;;;;;;;10.35;5.28;;;;;;;;;;2081787;28;100008;-14
2021/08/30 10:50:54;;;;;;;15.05;5.28;;;;;;;;;;2082854;28;100180;-18
2021/08/30 10:52:13;;;;;;;8.10;4.68;;;;;;;;;;2083137;28;99933;-17
2021/08/30 10:53:23;;;;;;;12.77;5.60;;;;;;;;;;2083132;27;100340;-14
2021/08/30 10:54:24;;;;;;;11.32;5.15;;;;;;;;;;2083035;28;100014;-17
2021/08/30 10:55:36;;;;;;;12.10;5.45;;;;;;;;;;2082749;27;100400;-15
2021/08/30 10:56:37;;;;;;;9.70;5.20;;;;;;;;;;2082203;28;100178;-14
2021/08/30 10:57:40;;;;;;;9.20;5.18;;;;;;;;;;2082585;28;99953;-15
2021/08/30 10:58:48;;;;;;;10.73;4.85;;;;;;;;;;2081988;28;101123;-15
2021/08/30 10:59:57;;;;;;;9.68;5.55;;;;;;;;;;2080156;28;100037;-15
2021/08/30 11:01:10;;;;;;;9.40;5.00;;;;;;;;;;2082681;27;101910;-14
2021/08/30 11:02:11;;;;;;;10.60;4.82;;;;;;;;;;2080638;28;100008;-14
2021/08/30 11:03:35;;;;;;;8.73;4.82;;;;;;;;;;2081033;28;99973;-17
2021/08/30 11:04:38;;;;;;;11.32;5.30;;;;;;;;;;2079011;28;100284;-15
2021/08/30 11:05:43;;;;;;;8.75;4.95;;;;;;;;;;2082349;28;100424;-16
2021/08/30 11:06:44;;;;;;;8.75;5.00;;;;;;;;;;2082544;27;100024;-16
2021/08/30 11:07:50;;;;;;;11.45;5.05;;;;;;;;;;2082880;28;100407;-16
2021/08/30 11:08:52;;;;;;;13.75;5.25;;;;;;;;;;2083191;27;100091;-16
2021/08/30 11:09:53;;;;;;;9.93;5.38;;;;;;;;;;2082939;27;100152;-17
2021/08/30 11:11:07;;;;;;;14.35;5.00;;;;;;;;;;2082923;27;100042;-17
2021/08/30 11:12:13;;;;;;;10.15;5.05;;;;;;;;;;2082841;28;99897;-16
2021/08/30 11:13:24;;;;;;;9.30;5.10;;;;;;;;;;2082730;28;99914;-14
2021/08/30 11:14:25;;;;;;;8.75;5.40;;;;;;;;;;2082801;28;99963;-15
2021/08/30 11:15:31;;;;;;;11.82;5.28;;;;;;;;;;2080920;27;100016;-13
2021/08/30 11:16:34;;;;;;;8.68;5.05;;;;;;;;;;2076472;27;100067;-14
2021/08/30 11:17:36;;;;;;;8.43;4.88;;;;;;;;;;2076649;28;100090;-14
2021/08/30 11:18:37;;;;;;;9.63;5.10;;;;;;;;;;2082002;28;100528;-14
2021/08/30 11:19:38;;;;;;;12.32;5.38;;;;;;;;;;2082868;28;100002;-17
2021/08/30 11:20:47;;;;;;;9.98;5.00;;;;;;;;;;2081460;28;100155;-17
2021/08/30 11:21:51;;;;;;;7.05;5.05;;;;;;;;;;2074824;28;100077;-16
2021/08/30 11:22:53;;;;;;;9.25;4.95;;;;;;;;;;2082136;28;99989;-17
2021/08/30 11:23:54;;;;;;;10.18;4.72;;;;;;;;;;2082665;27;99877;-15
2021/08/30 11:24:57;;;;;;;;;;;;;;;;;;2082824;27;100025;-13
2021/08/30 11:26:04;;;;;;;7.75;4.55;;;;;;;;;;2083154;27;99897;-13
2021/08/30 11:27:11;;;;;;;9.95;5.00;;;;;;;;;;2082468;27;100038;-17
2021/08/30 11:28:21;;;;;;;8.30;5.13;;;;;;;;;;2082999;28;100216;-13
2021/08/30 11:29:22;;;;;;;8.00;4.65;;;;;;;;;;2082461;28;100257;-16
2021/08/30 11:30:23;;;;;;;9.93;4.80;;;;;;;;;;2082558;27;100043;-14
2021/08/30 11:31:24;;;;;;;;;;;;;;;;;;2082964;28;100085;-15
2021/08/30 11:32:31;;;;;;;8.70;5.00;;;;;;;;;;2082207;27;99856;-15
2021/08/30 11:33:36;;;;;;;8.32;4.32;;;;;;;;;;2081651;27;100092;-16
2021/08/30 11:34:38;;;;;;;8.60;5.10;;;;;;;;;;2081717;28;99924;-16
2021/08/30 11:35:42;;;;;;;11.50;5.13;;;;;;;;;;2081672;27;100002;-16
2021/08/30 11:36:48;;;;;;;7.65;4.53;;;;;;;;;;2082596;27;99983;-17
2021/08/30 11:37:49;;;;;;;7.85;5.15;;;;;;;;;;2082274;28;100076;-13
2021/08/30 11:38:59;;;;;;;;;;;;;;;;;;2083010;28;100528;-13
2021/08/30 11:40:04;;;;;;;7.22;4.65;;;;;;;;;;2082268;27;100120;-14
2021/08/30 11:41:09;;;;;;;9.65;4.50;;;;;;;;;;2064752;28;100131;-13
2021/08/30 11:42:17;;;;;;;9.48;5.35;;;;;;;;;;2065896;28;100835;-15
2021/08/30 11:43:17;;;;;;;8.68;4.47;;;;;;;;;;2082358;27;100323;-15
2021/08/30 11:44:18;;;;;;;;;;;;;;;;;;2082315;27;99882;-17
2021/08/30 11:45:22;;;;;;;7.38;4.38;;;;;;;;;;2082223;28;100297;-23
2021/08/30 11:46:25;;;;;;;9.57;4.50;;;;;;;;;;2081322;28;100107;-15
2021/08/30 11:47:27;;;;;;;9.15;5.05;;;;;;;;;;2074307;28;99969;-16
2021/08/30 11:48:28;;;;;;;7.53;4.78;;;;;;;;;;2081628;28;100112;-16
2021/08/30 11:49:37;;;;;;;;;;;;;;;;;;2081851;28;100109;-15
2021/08/30 11:50:39;;;;;;;8.90;4.78;;;;;;;;;;2081635;28;100384;-14
2021/08/30 11:51:42;;;;;;;10.02;5.10;;;;;;;;;;2081881;28;100066;-14
2021/08/30 11:52:43;;;;;;;8.82;4.82;;;;;;;;;;2081102;27;99998;-18
2021/08/30 11:53:45;;;;;;;;;;;;;;;;;;2081237;28;100043;-16
2021/08/30 11:55:05;;;;;;;9.75;5.00;;;;;;;;;;2073111;28;100106;-18
2021/08/30 11:56:06;;;;;;;12.48;5.20;;;;;;;;;;2081283;28;101290;-17
2021/08/30 11:57:06;;;;;;;;;;;;;;;;;;2082744;27;100184;-15
2021/08/30 11:58:08;;;;;;;8.00;4.47;;;;;;;;;;2082250;27;100153;-17
2021/08/30 11:59:09;;;;;;;11.02;4.47;;;;;;;;;;2064918;28;100045;-15
2021/08/30 12:00:25;;;;;;;9.07;4.75;;;;;;;;;;2056260;28;100728;-16
2021/08/30 12:01:37;;;;;;;9.50;4.88;;;;;;;;;;2058426;28;99987;-14
2021/08/30 12:02:39;;;;;;;9.07;4.53;;;;;;;;;;2065277;28;100476;-18
2021/08/30 12:03:43;;;;;;;10.68;4.90;;;;;;;;;;2072889;28;100110;-15
2021/08/30 12:04:44;;;;;;;8.50;5.10;;;;;;;;;;2073232;28;100167;-17
2021/08/30 12:05:46;;;;;;;6.65;4.20;;;;;;;;;;2081369;28;100013;-17
2021/08/30 12:06:53;;;;;;;16.08;4.85;;;;;;;;;;2082020;28;99976;-17
2021/08/30 12:08:00;;;;;;;8.63;4.55;;;;;;;;;;2081937;27;100421;-17
2021/08/30 12:09:01;;;;;;;9.98;5.00;;;;;;;;;;2081270;28;100110;-14
2021/08/30 12:10:05;;;;;;;15.38;4.80;;;;;;;;;;2081047;28;100115;-14
2021/08/30 12:11:06;;;;;;;11.68;5.10;;;;;;;;;;2081105;28;100011;-17
2021/08/30 12:12:30;;;;;;;8.13;5.53;;;;;;;;;;2072951;28;99976;-14
2021/08/30 12:13:33;;;;;;;10.98;4.80;;;;;;;;;;2081132;28;100131;-15
2021/08/30 12:14:35;;;;;;;7.90;4.03;;;;;;;;;;2082075;27;100015;-15
2021/08/30 12:15:37;;;;;;;12.43;5.03;;;;;;;;;;2080477;27;100082;-18
2021/08/30 12:16:38;;;;;;;13.63;5.15;;;;;;;;;;2079343;27;99962;-14
2021/08/30 12:17:44;;;;;;;7.78;4.70;;;;;;;;;;2079875;27;100069;-17
2021/08/30 12:18:49;;;;;;;10.55;4.60;;;;;;;;;;2079338;28;100043;-16
2021/08/30 12:20:00;;;;;;;9.70;4.85;;;;;;;;;;2078534;28;100213;-19
2021/08/30 12:21:02;;;;;;;10.65;4.85;;;;;;;;;;2080404;27;100144;-14
2021/08/30 12:22:04;;;;;;;7.32;4.57;;;;;;;;;;2080734;28;99926;-16
2021/08/30 12:23:08;;;;;;;11.88;4.97;;;;;;;;;;2080855;28;100255;-18
2021/08/30 12:24:17;;;;;;;13.15;4.80;;;;;;;;;;2080986;28;100162;-17
2021/08/30 12:25:22;;;;;;;9.93;4.55;;;;;;;;;;2080320;28;100409;-15
2021/08/30 12:26:23;;;;;;;12.32;4.70;;;;;;;;;;2080898;28;100150;-16
2021/08/30 12:27:24;;;;;;;14.77;5.03;;;;;;;;;;2078160;28;100053;-15
2021/08/30 12:28:25;;;;;;;;;;;;;;;;;;2080016;27;100373;-17
2021/08/30 12:29:26;;;;;;;10.50;5.05;;;;;;;;;;2080163;27;99885;-16
2021/08/30 12:30:28;;;;;;;;;;;;;;;;;;2082501;27;99946;-16
2021/08/30 12:31:32;;;;;;;86.60;37.17;;;;;;;;;;2082383;28;100168;-15
2021/08/30 12:32:48;;;;;;;94.30;40.90;;;;;;;;;;2081823;27;100015;-17
2021/08/30 12:34:00;;;;;;;72.30;29.70;;;;;;;;;;2079781;27;100372;-17
2021/08/30 12:35:01;;;;;;;32.72;15.00;;;;;;;;;;2080836;28;100062;-18
2021/08/30 12:36:02;;;;;;;;;;;;;;;;;;2078964;28;100084;-16
2021/08/30 12:37:03;;;;;;;31.90;13.05;;;;;;;;;;2077673;28;99998;-16
2021/08/30 12:38:09;;;;;;;27.20;11.20;;;;;;;;;;2079727;28;99870;-17
2021/08/30 12:39:10;;;;;;;28.65;10.90;;;;;;;;;;2081773;27;100069;-15
2021/08/30 12:40:11;;;;;;;;;;;;;;;;;;2080303;28;100473;-15
2021/08/30 12:41:12;;;;;;;19.17;8.65;;;;;;;;;;2080645;28;100112;-17
2021/08/30 12:42:13;;;;;;;27.42;11.30;;;;;;;;;;2078898;28;100373;-17
2021/08/30 12:43:15;;;;;;;;;;;;;;;;;;2078216;28;100072;-16
2021/08/30 12:44:16;;;;;;;18.42;9.70;;;;;;;;;;2081888;27;100016;-17
2021/08/30 12:45:18;;;;;;;25.30;9.48;;;;;;;;;;2082073;27;100454;-18
2021/08/30 12:46:19;;;;;;;19.90;10.13;;;;;;;;;;2081858;27;99923;-18
2021/08/30 12:47:20;;;;;;;19.15;9.15;;;;;;;;;;2081787;27;100010;-16
2021/08/30 12:48:21;;;;;;;;;;;;;;;;;;2082265;27;100002;-18
2021/08/30 12:49:22;;;;;;;23.42;10.77;;;;;;;;;;2081069;28;100107;-17
2021/08/30 12:50:23;;;;;;;;;;;;;;;;;;2081475;28;100011;-16
2021/08/30 12:51:24;;;;;;;23.42;9.98;;;;;;;;;;2081981;28;100074;-16
2021/08/30 12:52:25;;;;;;;24.45;9.68;;;;;;;;;;2081432;28;100117;-16
2021/08/30 12:53:26;;;;;;;;;;;;;;;;;;2082610;27;99824;-18
2021/08/30 12:54:27;;;;;;;27.73;10.40;;;;;;;;;;2081440;28;99907;-19
2021/08/30 12:55:28;;;;;;;19.58;9.40;;;;;;;;;;2081839;27;100011;-14
2021/08/30 12:56:29;;;;;;;21.33;10.55;;;;;;;;;;2081103;28;100027;-17
2021/08/30 12:57:30;;;;;;;;;;;;;;;;;;2081623;28;99964;-16
2021/08/30 12:58:31;;;;;;;23.83;10.02;;;;;;;;;;2081134;27;100329;-15
2021/08/30 12:59:32;;;;;;;22.35;9.50;;;;;;;;;;2072726;28;100312;-15
2021/08/30 13:00:34;;;;;;;;;;;;;;;;;;2073325;28;100122;-17
2021/08/30 13:01:35;;;;;;;17.65;9.57;;;;;;;;;;2080903;28;100130;-17
2021/08/30 13:02:39;;;;;;;23.27;9.90;;;;;;;;;;2081216;28;99889;-17
2021/08/30 13:03:40;;;;;;;20.58;8.60;;;;;;;;;;2080996;28;99986;-19
2021/08/30 13:04:41;;;;;;;20.77;8.90;;;;;;;;;;2081752;27;100566;-15
2021/08/30 13:05:43;;;;;;;22.45;8.82;;;;;;;;;;2081308;28;100701;-16
2021/08/30 13:06:43;;;;;;;;;;;;;;;;;;2080955;28;100121;-16
2021/08/30 13:07:44;;;;;;;18.98;8.85;;;;;;;;;;2077997;28;100449;-15
2021/08/30 13:08:45;;;;;;;20.38;8.80;;;;;;;;;;2070747;28;100482;-16
2021/08/30 13:09:50;;;;;;;18.45;9.05;;;;;;;;;;2081016;28;100111;-17
2021/08/30 13:10:51;;;;;;;19.80;8.93;;;;;;;;;;2081444;27;100050;-18
2021/08/30 13:11:52;;;;;;;19.27;8.88;;;;;;;;;;2081605;27;100084;-15
2021/08/30 13:12:53;;;;;;;;;;;;;;;;;;2082283;27;100121;-16
2021/08/30 13:13:54;;;;;;;20.67;8.80;;;;;;;;;;2080341;27;101621;-15
2021/08/30 13:14:54;;;;;;;;;;;;;;;;;;2082140;28;100366;-17
2021/08/30 13:15:55;;;;;;;20.10;8.20;;;;;;;;;;2081459;28;100188;-15
2021/08/30 13:16:56;;;;;;;;;;;;;;;;;;2078241;27;100392;-15
2021/08/30 13:17:57;;;;;;;24.60;8.40;;;;;;;;;;2078323;27;100093;-17
2021/08/30 13:18:58;;;;;;;23.05;9.00;;;;;;;;;;2080699;27;100013;-16
2021/08/30 13:19:59;;;;;;;15.65;6.22;;;;;;;;;;2080949;27;100245;-16
2021/08/30 13:21:00;;;;;;;21.85;8.68;;;;;;;;;;2079682;28;100369;-17
2021/08/30 13:22:02;;;;;;;17.77;8.05;;;;;;;;;;2075982;28;100104;-17
2021/08/30 13:23:03;;;;;;;23.80;7.93;;;;;;;;;;2081110;28;100097;-16
2021/08/30 13:24:03;;;;;;;;;;;;;;;;;;2081674;27;99984;-16
2021/08/30 13:25:08;;;;;;;18.60;6.72;;;;;;;;;;2081790;27;99875;-17
2021/08/30 13:26:09;;;;;;;18.15;7.28;;;;;;;;;;2080973;28;100031;-13
2021/08/30 13:27:10;;;;;;;;;;;;;;;;;;2081377;28;100005;-15
2021/08/30 13:28:12;;;;;;;19.38;7.18;;;;;;;;;;2081435;27;100083;-14
2021/08/30 13:29:13;;;;;;;22.38;7.75;;;;;;;;;;2081411;28;100136;-14
2021/08/30 13:30:14;;;;;;;;;;;;;;;;;;2082121;27;100063;-15
2021/08/30 13:31:16;;;;;;;17.33;7.22;;;;;;;;;;2081546;28;100007;-14
2021/08/30 13:32:18;;;;;;;16.95;7.25;;;;;;;;;;2081240;27;99922;-17
2021/08/30 13:33:19;;;;;;;22.30;7.40;;;;;;;;;;2081569;27;99974;-15
2021/08/30 13:34:19;;;;;;;;;;;;;;;;;;2081366;27;100029;-17
2021/08/30 13:35:21;;;;;;;15.93;6.88;;;;;;;;;;2080797;28;100102;-14
2021/08/30 13:36:22;;;;;;;14.52;7.07;;;;;;;;;;2077300;28;100099;-14
2021/08/30 13:37:23;;;;;;;;;;;;;;;;;;2081917;27;100050;-16
2021/08/30 13:38:25;;;;;;;;;;;;;;;;;;2082117;27;100146;-15
2021/08/30 13:39:25;;;;;;;14.43;6.45;;;;;;;;;;2081404;27;100107;-14
2021/08/30 13:40:28;;;;;;;16.08;6.97;;;;;;;;;;2081173;28;100185;-14
2021/08/30 13:41:29;;;;;;;15.23;6.38;;;;;;;;;;2081766;27;100363;-15
2021/08/30 13:42:30;;;;;;;;;;;;;;;;;;2081674;28;99971;-14
2021/08/30 13:43:31;;;;;;;11.75;6.07;;;;;;;;;;2081482;28;100552;-15
2021/08/30 13:44:33;;;;;;;14.75;6.82;;;;;;;;;;2080275;28;100064;-15
2021/08/30 13:45:33;;;;;;;9.57;6.00;;;;;;;;;;2081040;28;99997;-16
2021/08/30 13:46:34;;;;;;;;;;;;;;;;;;2081873;27;100059;-17
2021/08/30 13:47:35;;;;;;;11.88;5.00;;;;;;;;;;2081616;27;99966;-14
2021/08/30 13:48:40;;;;;;;8.48;4.38;;;;;;;;;;2082035;27;99830;-16
2021/08/30 13:49:42;;;;;;;12.88;5.28;;;;;;;;;;2080675;28;100439;-16
2021/08/30 13:50:42;;;;;;;11.82;4.60;;;;;;;;;;2072492;28;100549;-16
2021/08/30 13:51:43;;;;;;;;;;;;;;;;;;2081449;28;100122;-17
2021/08/30 13:52:44;;;;;;;9.68;4.57;;;;;;;;;;2081988;27;100031;-16
2021/08/30 13:53:45;;;;;;;13.68;5.25;;;;;;;;;;2081392;28;100244;-17
2021/08/30 13:54:46;;;;;;;;;;;;;;;;;;2081998;27;99946;-13
2021/08/30 13:55:48;;;;;;;14.35;5.70;;;;;;;;;;2080533;28;99901;-15
2021/08/30 13:56:49;;;;;;;12.65;5.00;;;;;;;;;;2081043;28;100511;-14
2021/08/30 13:57:49;;;;;;;;;;;;;;;;;;2081688;27;100048;-16
2021/08/30 13:58:51;;;;;;;14.05;5.43;;;;;;;;;;2081609;27;100038;-16
2021/08/30 13:59:52;;;;;;;11.95;5.28;;;;;;;;;;2080394;28;100348;-17
2021/08/30 14:00:53;;;;;;;12.27;5.30;;;;;;;;;;2080587;28;100088;-15
2021/08/30 14:01:54;;;;;;;9.48;5.03;;;;;;;;;;2072250;28;99968;-15
2021/08/30 14:02:55;;;;;;;8.27;4.80;;;;;;;;;;2072100;28;100027;-16
2021/08/30 14:03:56;;;;;;;11.15;5.38;;;;;;;;;;2080852;28;100280;-14
2021/08/30 14:04:57;;;;;;;9.93;5.45;;;;;;;;;;2080921;28;99966;-17
2021/08/30 14:05:58;;;;;;;;;;;;;;;;;;2081642;27;99972;-15
2021/08/30 14:06:59;;;;;;;13.00;5.40;;;;;;;;;;2081870;27;99860;-13
2021/08/30 14:08:00;;;;;;;11.38;5.55;;;;;;;;;;2081439;27;100033;-14
2021/08/30 14:09:02;;;;;;;8.95;4.88;;;;;;;;;;2080896;28;99961;-14
2021/08/30 14:10:04;;;;;;;12.68;5.47;;;;;;;;;;2072053;28;102243;-16
2021/08/30 14:11:05;;;;;;;11.98;5.30;;;;;;;;;;2079572;28;99988;-17
2021/08/30 14:12:07;;;;;;;;;;;;;;;;;;2081685;27;100033;-17
2021/08/30 14:13:08;;;;;;;11.80;4.75;;;;;;;;;;2081144;27;99881;-16
2021/08/30 14:14:14;;;;;;;8.98;4.30;;;;;;;;;;2080854;27;99887;-14
2021/08/30 14:15:18;;;;;;;10.35;4.82;;;;;;;;;;2080054;28;100103;-17
2021/08/30 14:16:19;;;;;;;8.80;4.30;;;;;;;;;;2080284;28;100690;-16
2021/08/30 14:17:20;;;;;;;;;;;;;;;;;;2083221;27;100002;-16
2021/08/30 14:18:21;;;;;;;9.80;4.93;;;;;;;;;;2082796;27;99986;-16
2021/08/30 14:19:22;;;;;;;9.27;4.43;;;;;;;;;;2082826;28;99963;-18
2021/08/30 14:20:25;;;;;;;10.00;4.50;;;;;;;;;;2064931;28;100312;-17
2021/08/30 14:21:27;;;;;;;8.02;4.65;;;;;;;;;;2065868;28;100038;-16
2021/08/30 14:22:28;;;;;;;8.90;5.03;;;;;;;;;;2073730;28;99964;-14
2021/08/30 14:23:29;;;;;;;;;;;;;;;;;;2083214;28;99953;-16
2021/08/30 14:24:30;;;;;;;8.90;5.40;;;;;;;;;;2073349;28;100115;-17
2021/08/30 14:25:31;;;;;;;9.95;4.57;;;;;;;;;;2073523;28;100121;-18
2021/08/30 14:26:32;;;;;;;13.75;5.50;;;;;;;;;;2082550;27;99936;-14
2021/08/30 14:27:33;;;;;;;9.82;4.82;;;;;;;;;;2082544;28;100040;-16
2021/08/30 14:28:34;;;;;;;;;;;;;;;;;;2082572;28;100115;-15
2021/08/30 14:29:35;;;;;;;8.38;4.75;;;;;;;;;;2083070;28;99907;-15
2021/08/30 14:30:36;;;;;;;9.00;4.72;;;;;;;;;;2082171;27;100097;-14
2021/08/30 14:31:37;;;;;;;;;;;;;;;;;;2083384;27;99777;-17
2021/08/30 14:32:38;;;;;;;7.25;4.60;;;;;;;;;;2082515;27;99920;-16
2021/08/30 14:33:40;;;;;;;8.88;4.45;;;;;;;;;;2082792;28;100286;-14
2021/08/30 14:34:41;;;;;;;9.88;5.00;;;;;;;;;;2081634;28;100104;-16
2021/08/30 14:35:42;;;;;;;10.18;4.82;;;;;;;;;;2082252;28;100151;-14
2021/08/30 14:36:43;;;;;;;11.20;4.70;;;;;;;;;;2081966;28;100136;-15
2021/08/30 14:37:44;;;;;;;;;;;;;;;;;;2083397;28;100208;-17
2021/08/30 14:38:45;;;;;;;13.07;4.80;;;;;;;;;;2082548;27;100490;-16
2021/08/30 14:39:47;;;;;;;7.75;4.00;;;;;;;;;;2064171;28;100137;-13
2021/08/30 14:40:48;;;;;;;11.93;4.70;;;;;;;;;;2047997;28;100076;-17
2021/08/30 14:41:50;;;;;;;7.18;3.88;;;;;;;;;;2065767;28;99966;-13
2021/08/30 14:42:51;;;;;;;9.80;4.82;;;;;;;;;;2065061;28;100087;-16
2021/08/30 14:43:53;;;;;;;6.10;3.92;;;;;;;;;;2048843;28;100143;-13
2021/08/30 14:44:54;;;;;;;9.25;4.38;;;;;;;;;;2049267;28;100253;-15
2021/08/30 14:45:54;;;;;;;;;;;;;;;;;;2073670;28;100048;-15
2021/08/30 14:46:55;;;;;;;10.75;4.80;;;;;;;;;;2073705;28;100475;-14
2021/08/30 14:47:56;;;;;;;9.48;4.65;;;;;;;;;;2082708;27;100195;-15
2021/08/30 14:48:57;;;;;;;;;;;;;;;;;;2082816;27;100611;-14
2021/08/30 14:49:58;;;;;;;8.52;4.43;;;;;;;;;;2079620;28;99972;-15
2021/08/30 14:50:59;;;;;;;7.75;3.85;;;;;;;;;;2082510;27;100010;-14
2021/08/30 14:52:00;;;;;;;15.88;5.18;;;;;;;;;;2082270;28;100007;-14
2021/08/30 14:53:01;;;;;;;16.30;4.88;;;;;;;;;;2082553;27;99959;-15
2021/08/30 14:54:02;;;;;;;10.80;4.20;;;;;;;;;;2082112;28;100076;-16
2021/08/30 14:55:04;;;;;;;6.80;4.07;;;;;;;;;;2082493;27;100427;-17
2021/08/30 14:56:05;;;;;;;8.73;4.32;;;;;;;;;;2082284;27;99941;-17
2021/08/30 14:57:08;;;;;;;11.88;4.45;;;;;;;;;;2082608;27;99878;-13
2021/08/30 14:58:09;;;;;;;14.45;4.63;;;;;;;;;;2082659;28;100083;-14
2021/08/30 14:59:11;;;;;;;9.05;4.70;;;;;;;;;;2082586;28;99997;-15
2021/08/30 15:00:12;;;;;;;8.45;4.18;;;;;;;;;;2082066;27;100451;-13
2021/08/30 15:01:13;;;;;;;10.07;4.30;;;;;;;;;;2081217;28;100071;-14
2021/08/30 15:02:14;;;;;;;;;;;;;;;;;;2082379;28;100180;-15
2021/08/30 15:03:14;;;;;;;9.40;3.95;;;;;;;;;;2081762;28;99996;-14
2021/08/30 15:04:17;;;;;;;10.20;4.70;;;;;;;;;;2082009;28;100008;-15
2021/08/30 15:05:18;;;;;;;9.88;4.20;;;;;;;;;;2079623;28;100014;-15
2021/08/30 15:06:18;;;;;;;;;;;;;;;;;;2082271;28;99926;-14
2021/08/30 15:07:21;;;;;;;8.02;4.22;;;;;;;;;;2082851;28;100274;-17
2021/08/30 15:08:21;;;;;;;9.02;4.00;;;;;;;;;;2082651;27;100088;-15
2021/08/30 15:09:22;;;;;;;;;;;;;;;;;;2083221;28;100065;-16
2021/08/30 15:10:23;;;;;;;10.50;3.88;;;;;;;;;;2082075;28;100123;-14
2021/08/30 15:11:25;;;;;;;9.48;4.40;;;;;;;;;;2081763;28;100059;-14
2021/08/30 15:12:28;;;;;;;8.25;4.35;;;;;;;;;;2081787;28;100065;-14
2021/08/30 15:13:30;;;;;;;10.80;4.30;;;;;;;;;;2074056;28;100106;-16
2021/08/30 15:14:31;;;;;;;10.38;3.85;;;;;;;;;;2073788;28;99956;-17
2021/08/30 15:15:35;;;;;;;8.40;3.85;;;;;;;;;;2081947;28;100138;-14
2021/08/30 15:16:36;;;;;;;5.10;3.03;;;;;;;;;;2082077;28;100035;-15
2021/08/30 15:17:37;;;;;;;7.38;3.47;;;;;;;;;;2081612;28;100092;-16
2021/08/30 15:18:38;;;;;;;10.60;4.47;;;;;;;;;;2082329;27;99953;-15
2021/08/30 15:19:39;;;;;;;;;;;;;;;;;;2083071;27;99965;-15
2021/08/30 15:20:40;;;;;;;6.88;3.75;;;;;;;;;;2082135;27;100031;-17
2021/08/30 15:21:41;;;;;;;8.02;3.80;;;;;;;;;;2082343;27;100061;-14
2021/08/30 15:22:42;;;;;;;7.30;3.55;;;;;;;;;;2081794;28;100040;-15